createdAt,value
2022-11-27T00:01:12.829Z,3.03
2022-11-27T00:03:40.561Z,3.30
2022-11-27T00:06:08.115Z,3.15
2022-11-27T00:08:37.661Z,3.45
2022-11-27T00:11:12.107Z,3.30
2022-11-27T00:13:39.426Z,3.47
2022-11-27T00:16:07.052Z,3.00
2022-11-27T00:18:34.170Z,3.53
2022-11-27T00:21:10.836Z,3.33
2022-11-27T00:23:37.980Z,3.60
2022-11-27T00:26:08.490Z,3.40
2022-11-27T00:28:36.115Z,3.35
2022-11-27T00:31:07.346Z,3.10
2022-11-27T00:33:33.932Z,3.10
2022-11-27T00:36:07.976Z,3.72
2022-11-27T00:38:38.805Z,3.42
2022-11-27T00:41:11.492Z,3.33
2022-11-27T00:43:44.586Z,2.75
2022-11-27T00:46:20.815Z,3.53
2022-11-27T00:48:49.409Z,3.50
2022-11-27T00:51:21.302Z,4.03
2022-11-27T00:53:48.621Z,3.42
2022-11-27T00:56:18.940Z,4.30
2022-11-27T00:58:45.941Z,3.55
2022-11-27T01:01:22.020Z,4.18
2022-11-27T01:03:49.667Z,3.78
2022-11-27T01:06:18.045Z,4.20
2022-11-27T01:08:45.074Z,3.75
2022-11-27T01:11:33.471Z,3.55
2022-11-27T01:14:03.471Z,3.50
2022-11-27T01:16:34.356Z,3.58
2022-11-27T01:19:05.222Z,4.07
2022-11-27T01:21:34.545Z,4.07
2022-11-27T01:24:04.503Z,4.20
2022-11-27T01:26:31.390Z,4.22
2022-11-27T01:28:58.985Z,4.18
2022-11-27T01:31:29.356Z,4.75
2022-11-27T01:34:05.180Z,3.95
2022-11-27T01:36:33.017Z,4.43
2022-11-27T01:39:02.948Z,4.88
2022-11-27T01:41:40.013Z,4.15
2022-11-27T01:44:24.924Z,3.90
2022-11-27T01:47:03.751Z,4.07
2022-11-27T01:49:52.170Z,4.28
2022-11-27T01:52:30.052Z,4.60
2022-11-27T01:55:01.911Z,4.35
2022-11-27T01:57:38.995Z,3.92
2022-11-27T02:00:08.278Z,5.07
2022-11-27T02:02:34.840Z,4.63
2022-11-27T02:05:03.706Z,5.25
2022-11-27T02:07:30.472Z,4.68
2022-11-27T02:09:57.056Z,5.10
2022-11-27T02:12:53.644Z,5.13
2022-11-27T02:15:41.774Z,5.05
2022-11-27T02:18:16.777Z,4.70
2022-11-27T02:20:50.329Z,5.40
2022-11-27T02:23:31.736Z,5.10
2022-11-27T02:26:30.612Z,4.35
2022-11-27T02:29:13.660Z,5.00
2022-11-27T02:31:47.216Z,4.65
2022-11-27T02:34:20.015Z,5.25
2022-11-27T02:36:53.152Z,5.07
2022-11-27T02:39:26.666Z,5.10
2022-11-27T02:42:11.669Z,5.53
2022-11-27T02:44:45.310Z,5.20
2022-11-27T02:47:13.482Z,4.97
2022-11-27T02:49:42.974Z,4.88
2022-11-27T02:52:12.913Z,4.93
2022-11-27T02:54:41.433Z,4.93
2022-11-27T02:57:10.745Z,4.70
2022-11-27T02:59:38.516Z,4.60
2022-11-27T03:02:14.978Z,5.03
2022-11-27T03:04:47.548Z,5.00
2022-11-27T03:07:42.393Z,4.82
2022-11-27T03:10:19.561Z,4.90
2022-11-27T03:12:47.984Z,4.57
2022-11-27T03:15:14.751Z,4.38
2022-11-27T03:17:41.212Z,4.30
2022-11-27T03:20:17.478Z,4.68
2022-11-27T03:22:44.105Z,4.60
2022-11-27T03:25:10.814Z,5.18
2022-11-27T03:27:47.313Z,4.43
2022-11-27T03:30:16.368Z,4.53
2022-11-27T03:32:43.254Z,4.53
2022-11-27T03:35:12.506Z,4.20
2022-11-27T03:37:39.315Z,4.22
2022-11-27T03:40:07.539Z,4.72
2022-11-27T03:42:56.145Z,4.78
2022-11-27T03:45:43.030Z,4.30
2022-11-27T03:48:33.769Z,4.80
2022-11-27T03:51:36.774Z,3.53
2022-11-27T03:54:52.823Z,3.80
2022-11-27T03:57:34.583Z,4.32
2022-11-27T04:00:06.541Z,3.72
2022-11-27T04:02:50.298Z,3.83
2022-11-27T04:05:18.133Z,3.95
2022-11-27T04:07:44.674Z,3.75
2022-11-27T04:10:11.933Z,3.92
2022-11-27T04:12:38.701Z,4.00
2022-11-27T04:15:06.193Z,3.75
2022-11-27T04:17:33.155Z,3.40
2022-11-27T04:19:59.870Z,3.85
2022-11-27T04:22:26.465Z,4.10
2022-11-27T04:24:53.070Z,3.30
2022-11-27T04:27:19.718Z,3.40
2022-11-27T04:29:46.316Z,4.07
2022-11-27T04:32:12.855Z,3.50
2022-11-27T04:34:39.681Z,3.97
2022-11-27T04:37:08.998Z,3.60
2022-11-27T04:39:35.544Z,5.07
2022-11-27T04:42:02.058Z,4.18
2022-11-27T04:44:28.653Z,3.35
2022-11-27T04:46:55.260Z,3.05
2022-11-27T04:49:24.212Z,3.58
2022-11-27T04:51:50.908Z,3.45
2022-11-27T04:54:19.766Z,3.20
2022-11-27T04:56:46.277Z,3.63
2022-11-27T04:59:12.839Z,3.53
2022-11-27T05:01:39.350Z,3.55
2022-11-27T05:04:05.913Z,3.25
2022-11-27T05:06:32.495Z,3.20
2022-11-27T05:09:02.333Z,3.42
2022-11-27T05:11:30.560Z,3.17
2022-11-27T05:14:15.227Z,3.13
2022-11-27T05:16:42.252Z,3.63
2022-11-27T05:19:10.717Z,3.28
2022-11-27T05:21:38.447Z,3.30
2022-11-27T05:24:05.487Z,3.42
2022-11-27T05:26:34.570Z,3.45
2022-11-27T05:29:01.462Z,2.78
2022-11-27T05:31:28.328Z,3.00
2022-11-27T05:33:54.976Z,3.22
2022-11-27T05:36:21.695Z,3.28
2022-11-27T05:38:53.121Z,2.97
2022-11-27T05:41:20.029Z,3.08
2022-11-27T05:43:49.852Z,3.10
2022-11-27T05:46:19.893Z,2.70
2022-11-27T05:48:46.477Z,3.35
2022-11-27T05:51:13.469Z,2.92
2022-11-27T05:53:40.351Z,2.90
2022-11-27T05:56:09.825Z,2.80
2022-11-27T05:58:37.233Z,3.28
2022-11-27T06:01:04.747Z,2.35
2022-11-27T06:03:31.490Z,2.45
2022-11-27T06:05:58.097Z,3.03
2022-11-27T06:08:24.667Z,2.80
2022-11-27T06:10:51.249Z,2.95
2022-11-27T06:13:17.890Z,2.90
2022-11-27T06:15:44.507Z,2.50
2022-11-27T06:18:11.901Z,2.72
2022-11-27T06:20:43.739Z,2.65
2022-11-27T06:23:11.307Z,2.83
2022-11-27T06:25:40.290Z,2.45
2022-11-27T06:28:09.598Z,2.88
2022-11-27T06:30:37.872Z,2.65
2022-11-27T06:33:04.455Z,3.17
2022-11-27T06:35:32.054Z,2.92
2022-11-27T06:37:58.661Z,3.30
2022-11-27T06:40:25.190Z,3.10
2022-11-27T06:42:51.665Z,2.45
2022-11-27T06:45:18.154Z,2.63
2022-11-27T06:47:45.464Z,2.75
2022-11-27T06:50:12.042Z,2.80
2022-11-27T06:52:40.560Z,2.80
2022-11-27T06:55:07.863Z,2.65
2022-11-27T06:57:34.392Z,3.00
2022-11-27T07:00:00.898Z,3.08
2022-11-27T07:02:27.606Z,3.38
2022-11-27T07:04:56.509Z,2.85
2022-11-27T07:07:23.099Z,3.13
2022-11-27T07:09:49.725Z,3.47
2022-11-27T07:12:16.224Z,3.20
2022-11-27T07:14:42.900Z,3.03
2022-11-27T07:17:12.019Z,3.88
2022-11-27T07:19:38.630Z,3.17
2022-11-27T07:22:07.412Z,3.40
2022-11-27T07:24:34.025Z,3.42
2022-11-27T07:27:00.573Z,3.05
2022-11-27T07:29:27.095Z,3.72
2022-11-27T07:31:53.730Z,3.55
2022-11-27T07:34:21.886Z,3.53
2022-11-27T07:36:48.698Z,3.13
2022-11-27T07:39:22.258Z,3.40
2022-11-27T07:42:23.235Z,3.20
2022-11-27T07:44:49.442Z,3.88
2022-11-27T07:47:16.055Z,3.42
2022-11-27T07:49:42.663Z,3.55
2022-11-27T07:52:11.681Z,3.75
2022-11-27T07:54:40.624Z,3.83
2022-11-27T07:57:07.733Z,3.58
2022-11-27T07:59:34.516Z,3.63
2022-11-27T08:02:01.125Z,3.30
2022-11-27T08:04:30.247Z,3.67
2022-11-27T08:06:57.659Z,3.53
2022-11-27T08:09:26.856Z,4.55
2022-11-27T08:11:53.416Z,3.92
2022-11-27T08:14:20.038Z,4.10
2022-11-27T08:16:46.725Z,3.85
2022-11-27T08:19:13.731Z,4.15
2022-11-27T08:21:40.350Z,3.78
2022-11-27T08:24:07.203Z,4.57
2022-11-27T08:26:33.840Z,4.32
2022-11-27T08:29:00.614Z,3.75
2022-11-27T08:31:27.458Z,4.70
2022-11-27T08:33:54.185Z,3.95
2022-11-27T08:36:20.802Z,4.18
2022-11-27T08:38:47.368Z,4.47
2022-11-27T08:41:14.565Z,3.88
2022-11-27T08:43:41.169Z,4.45
2022-11-27T08:46:07.828Z,4.25
2022-11-27T08:48:35.430Z,4.32
2022-11-27T08:51:07.403Z,4.30
2022-11-27T08:53:34.713Z,4.85
2022-11-27T08:56:13.976Z,4.57
2022-11-27T08:58:41.259Z,4.40
2022-11-27T09:01:12.558Z,4.65
2022-11-27T09:03:41.532Z,4.57
2022-11-27T09:06:13.563Z,4.72
2022-11-27T09:08:41.063Z,4.82
2022-11-27T09:11:09.061Z,5.40
2022-11-27T09:13:40.190Z,5.15
2022-11-27T09:16:09.840Z,4.97
2022-11-27T09:18:39.188Z,5.07
2022-11-27T09:21:11.487Z,5.10
2022-11-27T09:23:39.109Z,5.13
2022-11-27T09:26:08.574Z,5.05
2022-11-27T09:28:36.197Z,5.55
2022-11-27T09:31:06.736Z,5.18
2022-11-27T09:33:34.850Z,5.45
2022-11-27T09:36:22.797Z,5.38
2022-11-27T09:38:49.415Z,5.55
2022-11-27T09:41:25.349Z,5.05
2022-11-27T09:43:57.819Z,5.75
2022-11-27T09:46:31.281Z,5.68
2022-11-27T09:49:00.850Z,5.47
2022-11-27T09:51:45.316Z,5.30
2022-11-27T09:54:30.611Z,6.05
2022-11-27T09:56:58.715Z,6.22
2022-11-27T09:59:36.371Z,5.90
2022-11-27T10:02:03.017Z,5.93
2022-11-27T10:04:39.864Z,6.03
2022-11-27T10:07:25.462Z,6.45
2022-11-27T10:10:07.345Z,5.60
2022-11-27T10:12:58.429Z,6.25
2022-11-27T10:15:31.180Z,6.40
2022-11-27T10:18:13.177Z,5.40
2022-11-27T10:20:54.397Z,8.18
2022-11-27T10:23:49.324Z,6.50
2022-11-27T10:26:29.235Z,6.38
2022-11-27T10:29:03.195Z,6.60
2022-11-27T10:31:38.756Z,7.03
2022-11-27T10:34:26.786Z,6.85
2022-11-27T10:36:56.117Z,6.53
2022-11-27T10:39:41.173Z,6.00
2022-11-27T10:42:25.996Z,6.90
2022-11-27T10:45:04.958Z,5.75
2022-11-27T10:47:33.876Z,5.97
2022-11-27T10:50:02.066Z,6.13
2022-11-27T10:52:28.945Z,5.88
2022-11-27T10:55:16.401Z,5.95
2022-11-27T10:58:00.966Z,6.15
2022-11-27T11:00:28.042Z,6.43
2022-11-27T11:03:03.855Z,6.15
2022-11-27T11:05:50.609Z,6.40
2022-11-27T11:08:20.850Z,6.07
2022-11-27T11:11:03.542Z,6.45
2022-11-27T11:13:43.655Z,6.20
2022-11-27T11:16:24.348Z,6.03
2022-11-27T11:18:53.228Z,6.05
2022-11-27T11:21:35.190Z,6.45
2022-11-27T11:24:03.323Z,6.10
2022-11-27T11:26:38.478Z,6.28
2022-11-27T11:29:19.887Z,5.72
2022-11-27T11:31:48.921Z,5.97
2022-11-27T11:34:27.271Z,5.75
2022-11-27T11:37:08.327Z,6.00
2022-11-27T11:39:47.655Z,7.83
2022-11-27T11:42:23.560Z,7.47
2022-11-27T11:44:56.188Z,6.75
2022-11-27T11:47:25.250Z,6.10
2022-11-27T11:49:53.890Z,8.43
2022-11-27T11:52:55.187Z,6.32
2022-11-27T11:55:51.694Z,7.00
2022-11-27T11:58:50.978Z,5.88
2022-11-27T12:01:46.781Z,6.10
2022-11-27T12:04:25.072Z,5.47
2022-11-27T12:07:08.798Z,5.90
2022-11-27T12:09:51.081Z,5.90
2022-11-27T12:12:42.015Z,5.78
2022-11-27T12:15:11.466Z,5.93
2022-11-27T12:17:58.822Z,6.60
2022-11-27T12:20:34.520Z,5.85
2022-11-27T12:23:31.955Z,6.47
2022-11-27T12:26:15.831Z,5.93
2022-11-27T12:29:10.611Z,6.57
2022-11-27T12:32:19.616Z,7.70
2022-11-27T12:35:03.093Z,6.13
2022-11-27T12:37:55.463Z,5.75
2022-11-27T12:40:25.108Z,5.90
2022-11-27T12:43:20.587Z,6.40
2022-11-27T12:46:01.793Z,6.72
2022-11-27T12:48:53.719Z,7.10
2022-11-27T12:51:44.419Z,7.07
2022-11-27T12:55:09.179Z,6.80
2022-11-27T12:58:14.653Z,6.20
2022-11-27T13:00:44.862Z,6.03
2022-11-27T13:04:07.604Z,5.80
2022-11-27T13:07:12.314Z,5.97
2022-11-27T13:09:50.822Z,8.10
2022-11-27T13:12:27.165Z,7.03
2022-11-27T13:15:02.816Z,6.20
2022-11-27T13:17:42.692Z,6.00
2022-11-27T13:20:20.536Z,6.07
2022-11-27T13:22:48.079Z,6.80
2022-11-27T13:25:15.203Z,7.20
2022-11-27T13:27:46.757Z,7.00
2022-11-27T13:30:22.735Z,6.72
2022-11-27T13:33:01.830Z,9.05
2022-11-27T13:35:40.519Z,7.20
2022-11-27T13:38:09.393Z,6.93
2022-11-27T13:40:46.536Z,9.27
2022-11-27T13:43:43.562Z,7.45
2022-11-27T13:46:20.175Z,7.30
2022-11-27T13:48:56.446Z,6.63
2022-11-27T13:51:43.500Z,6.53
2022-11-27T13:54:22.234Z,6.90
2022-11-27T13:56:51.176Z,7.35
2022-11-27T13:59:21.444Z,6.43
2022-11-27T14:02:01.476Z,6.95
2022-11-27T14:04:30.951Z,7.53
2022-11-27T14:07:08.076Z,6.85
2022-11-27T14:09:47.380Z,7.57
2022-11-27T14:12:33.552Z,8.73
2022-11-27T14:15:18.616Z,6.95
2022-11-27T14:17:47.716Z,6.47
2022-11-27T14:20:17.553Z,6.80
2022-11-27T14:23:12.739Z,6.90
2022-11-27T14:25:40.589Z,6.75
2022-11-27T14:28:15.765Z,6.32
2022-11-27T14:30:49.580Z,6.80
2022-11-27T14:33:47.393Z,5.90
2022-11-27T14:36:24.958Z,6.20
2022-11-27T14:38:52.242Z,5.78
2022-11-27T14:42:04.262Z,5.90
2022-11-27T14:44:32.106Z,5.80
2022-11-27T14:47:02.253Z,6.57
2022-11-27T14:49:31.667Z,5.68
2022-11-27T14:52:05.858Z,6.15
2022-11-27T14:54:35.630Z,5.72
2022-11-27T14:57:02.543Z,5.70
2022-11-27T14:59:29.343Z,6.78
2022-11-27T15:02:29.094Z,6.70
2022-11-27T15:05:05.462Z,5.70
2022-11-27T15:07:41.934Z,7.05
2022-11-27T15:10:22.987Z,7.32
2022-11-27T15:12:51.036Z,6.88
2022-11-27T15:15:23.728Z,5.97
2022-11-27T15:18:00.310Z,6.18
2022-11-27T15:20:34.659Z,6.47
2022-11-27T15:23:06.535Z,6.03
2022-11-27T15:25:43.921Z,5.97
2022-11-27T15:28:28.475Z,5.78
2022-11-27T15:30:56.154Z,4.95
2022-11-27T15:33:31.869Z,5.88
2022-11-27T15:36:21.016Z,5.95
2022-11-27T15:38:50.885Z,6.00
2022-11-27T15:41:27.796Z,5.70
2022-11-27T15:43:55.665Z,5.90
2022-11-27T15:46:30.322Z,5.78
2022-11-27T15:48:59.357Z,6.13
2022-11-27T15:51:26.171Z,5.82
2022-11-27T15:53:53.052Z,6.20
2022-11-27T15:56:22.547Z,6.00
2022-11-27T15:58:49.327Z,7.53
2022-11-27T16:01:16.008Z,6.13
2022-11-27T16:03:45.132Z,6.05
2022-11-27T16:06:14.237Z,7.03
2022-11-27T16:08:40.809Z,6.32
2022-11-27T16:11:14.821Z,5.85
2022-11-27T16:13:41.341Z,6.18
2022-11-27T16:16:08.915Z,6.30
2022-11-27T16:18:35.622Z,6.50
2022-11-27T16:21:07.756Z,6.57
2022-11-27T16:23:38.435Z,6.50
2022-11-27T16:26:08.345Z,6.28
2022-11-27T16:28:37.545Z,6.15
2022-11-27T16:31:08.534Z,5.60
2022-11-27T16:33:35.126Z,6.47
2022-11-27T16:36:12.608Z,6.28
2022-11-27T16:38:42.378Z,6.07
2022-11-27T16:41:17.700Z,5.90
2022-11-27T16:43:47.051Z,6.05
2022-11-27T16:46:17.311Z,6.40
2022-11-27T16:48:44.736Z,6.05
2022-11-27T16:51:17.590Z,6.40
2022-11-27T16:53:46.651Z,5.47
2022-11-27T16:56:15.271Z,5.90
2022-11-27T16:58:43.761Z,5.82
2022-11-27T17:01:18.257Z,6.25
2022-11-27T17:03:44.807Z,5.63
2022-11-27T17:06:14.636Z,6.28
2022-11-27T17:08:41.618Z,6.15
2022-11-27T17:11:13.174Z,5.93
2022-11-27T17:13:44.830Z,5.85
2022-11-27T17:16:11.591Z,7.28
2022-11-27T17:18:39.958Z,7.65
2022-11-27T17:21:34.406Z,6.38
2022-11-27T17:24:04.303Z,6.13
2022-11-27T17:26:35.312Z,7.80
2022-11-27T17:29:03.546Z,6.60
2022-11-27T17:31:37.108Z,6.13
2022-11-27T17:34:05.547Z,5.88
2022-11-27T17:36:36.774Z,5.93
2022-11-27T17:39:05.854Z,5.80
2022-11-27T17:41:32.810Z,5.05
2022-11-27T17:43:59.630Z,6.03
2022-11-27T17:46:29.304Z,6.25
2022-11-27T17:48:59.081Z,5.85
2022-11-27T17:51:26.465Z,5.72
2022-11-27T17:53:53.265Z,6.57
2022-11-27T17:56:21.023Z,6.82
2022-11-27T17:58:50.294Z,6.28
2022-11-27T18:01:20.249Z,8.23
2022-11-27T18:03:47.414Z,8.27
2022-11-27T18:06:15.586Z,7.80
2022-11-27T18:08:42.674Z,7.30
2022-11-27T18:11:15.371Z,7.00
2022-11-27T18:13:42.124Z,6.50
2022-11-27T18:16:11.612Z,6.10
2022-11-27T18:18:39.132Z,6.30
2022-11-27T18:21:16.701Z,6.07
2022-11-27T18:24:14.549Z,6.38
2022-11-27T18:26:52.665Z,5.55
2022-11-27T18:29:18.639Z,6.13
2022-11-27T18:31:46.731Z,6.72
2022-11-27T18:34:13.348Z,6.57
2022-11-27T18:36:39.934Z,6.20
2022-11-27T18:39:08.794Z,7.57
2022-11-27T18:41:40.807Z,6.72
2022-11-27T18:44:07.911Z,6.50
2022-11-27T18:46:34.629Z,7.18
2022-11-27T18:49:01.325Z,7.55
2022-11-27T18:51:27.904Z,7.32
2022-11-27T18:53:56.012Z,6.22
2022-11-27T18:56:25.025Z,6.43
2022-11-27T18:58:54.668Z,6.63
2022-11-27T19:01:24.638Z,6.70
2022-11-27T19:03:51.802Z,6.78
2022-11-27T19:06:20.561Z,7.10
2022-11-27T19:08:49.475Z,6.57
2022-11-27T19:11:21.964Z,7.00
2022-11-27T19:13:49.832Z,6.97
2022-11-27T19:16:22.648Z,6.90
2022-11-27T19:18:49.730Z,7.05
2022-11-27T19:21:21.481Z,7.75
2022-11-27T19:23:51.849Z,7.90
2022-11-27T19:26:24.043Z,8.57
2022-11-27T19:28:52.272Z,7.85
2022-11-27T19:31:19.901Z,6.97
2022-11-27T19:33:52.466Z,5.72
2022-11-27T19:36:19.196Z,5.90
2022-11-27T19:38:45.733Z,7.35
2022-11-27T19:41:14.933Z,6.75
2022-11-27T19:43:41.916Z,6.40
2022-11-27T19:46:19.826Z,6.43
2022-11-27T19:48:47.025Z,6.72
2022-11-27T19:51:14.167Z,6.38
2022-11-27T19:53:41.899Z,6.38
2022-11-27T19:56:10.015Z,7.00
2022-11-27T19:58:37.364Z,6.63
2022-11-27T20:01:09.193Z,6.65
2022-11-27T20:03:36.101Z,6.25
2022-11-27T20:06:08.164Z,7.90
2022-11-27T20:08:35.388Z,7.20
2022-11-27T20:11:02.647Z,7.07
2022-11-27T20:13:31.674Z,7.15
2022-11-27T20:15:58.332Z,7.35
2022-11-27T20:18:26.070Z,6.75
2022-11-27T20:20:52.685Z,7.70
2022-11-27T20:23:19.219Z,6.93
2022-11-27T20:25:49.412Z,6.30
2022-11-27T20:28:16.003Z,7.40
2022-11-27T20:30:44.789Z,6.15
2022-11-27T20:33:13.143Z,6.10
2022-11-27T20:35:42.928Z,6.28
2022-11-27T20:38:09.478Z,5.90
2022-11-27T20:40:38.749Z,6.45
2022-11-27T20:43:05.317Z,6.00
2022-11-27T20:45:36.212Z,5.90
2022-11-27T20:48:02.907Z,5.53
2022-11-27T20:50:31.812Z,6.70
2022-11-27T20:53:00.861Z,5.65
2022-11-27T20:55:27.485Z,6.18
2022-11-27T20:57:56.500Z,5.82
2022-11-27T21:00:25.904Z,6.50
2022-11-27T21:02:52.424Z,6.10
2022-11-27T21:05:20.118Z,6.75
2022-11-27T21:07:46.805Z,7.18
2022-11-27T21:10:15.520Z,5.95
2022-11-27T21:12:42.113Z,6.15
2022-11-27T21:15:09.288Z,6.65
2022-11-27T21:17:36.010Z,6.53
2022-11-27T21:20:04.112Z,5.93
2022-11-27T21:22:31.590Z,6.45
2022-11-27T21:24:58.119Z,6.38
2022-11-27T21:27:24.761Z,7.00
2022-11-27T21:29:51.367Z,5.72
2022-11-27T21:32:18.263Z,6.60
2022-11-27T21:34:44.974Z,6.80
2022-11-27T21:37:13.766Z,6.38
2022-11-27T21:39:41.275Z,6.97
2022-11-27T21:42:08.478Z,6.60
2022-11-27T21:44:35.064Z,6.50
2022-11-27T21:47:01.644Z,6.68
2022-11-27T21:49:28.250Z,6.88
2022-11-27T21:51:54.985Z,5.95
2022-11-27T21:54:22.359Z,6.15
2022-11-27T21:56:51.661Z,6.22
2022-11-27T21:59:18.387Z,6.15
2022-11-27T22:01:45.726Z,6.72
2022-11-27T22:04:12.741Z,6.38
2022-11-27T22:06:41.828Z,6.47
2022-11-27T22:09:14.700Z,6.32
2022-11-27T22:11:42.653Z,6.35
2022-11-27T22:14:09.681Z,5.88
2022-11-27T22:16:44.390Z,5.90
2022-11-27T22:19:11.724Z,5.75
2022-11-27T22:21:38.294Z,6.25
2022-11-27T22:24:04.990Z,6.05
2022-11-27T22:26:34.039Z,6.32
2022-11-27T22:29:00.577Z,5.88
2022-11-27T22:31:29.914Z,5.97
2022-11-27T22:33:57.399Z,6.28
2022-11-27T22:36:32.726Z,6.25
2022-11-27T22:39:08.901Z,6.20
2022-11-27T22:41:37.116Z,6.47
2022-11-27T22:44:15.222Z,6.40
2022-11-27T22:46:42.438Z,6.72
2022-11-27T22:49:11.162Z,6.00
2022-11-27T22:51:38.253Z,6.82
2022-11-27T22:54:06.563Z,6.63
2022-11-27T22:56:36.640Z,6.60
2022-11-27T22:59:31.775Z,5.93
2022-11-27T23:01:54.190Z,5.95
2022-11-27T23:04:20.822Z,5.65
2022-11-27T23:06:50.377Z,6.50
2022-11-27T23:09:18.852Z,6.00
2022-11-27T23:11:45.978Z,5.82
2022-11-27T23:14:12.661Z,5.80
2022-11-27T23:16:41.595Z,6.35
2022-11-27T23:19:11.193Z,6.05
2022-11-27T23:21:38.892Z,6.22
2022-11-27T23:24:09.799Z,6.20
2022-11-27T23:26:39.006Z,6.38
2022-11-27T23:29:05.602Z,5.85
2022-11-27T23:31:35.336Z,6.20
2022-11-27T23:34:07.293Z,5.32
2022-11-27T23:36:34.787Z,5.90
2022-11-27T23:39:04.091Z,5.22
2022-11-27T23:41:31.403Z,6.22
2022-11-27T23:43:58.371Z,5.57
2022-11-27T23:46:27.164Z,5.25
2022-11-27T23:48:55.677Z,4.68
2022-11-27T23:51:27.412Z,4.30
2022-11-27T23:53:54.498Z,4.60
2022-11-27T23:56:24.048Z,4.53
2022-11-27T23:58:50.614Z,4.43
